Atmospheric History
02/08/2018 19:39  to  2/9/2018 19:39
Change End Date:
To complete the export process:
1) Select all of the data below
2) Copy the data to the clipboard
3) Open a word processor such as Notepad
4) Paste the data into the word processor
5) Save the file

Date/Time (MST), AirTemp, RH, Dewpoint ,AvgWindSpeed, GustWindSpeed, WindDirection, PrecipType, PrecipIntensity, PrecipAccumulation, PrecipRate
02/09/2018 19:36, -9, 74, -15 ,17, 21, W, None, None, ,  
02/09/2018 19:32, -9, 74, -16 ,18, 21, W, None, None, ,  
02/09/2018 19:26, -10, 73, -16 ,17, 21, W, None, None, ,  
02/09/2018 19:17, -9, 73, -15 ,18, 25, W, None, None, ,  
02/09/2018 19:16, -9, 73, -15 ,19, 25, W, None, None, ,  
02/09/2018 19:06, -9, 73, -15 ,21, 25, W, None, None, ,  
02/09/2018 19:02, -9, 73, -15 ,22, 26, W, None, None, ,  
02/09/2018 18:56, -9, 73, -15 ,23, 26, W, None, None, ,  
02/09/2018 18:47, -9, 73, -16 ,22, 27, W, None, None, ,  
02/09/2018 18:46, -9, 73, -16 ,23, 27, W, None, None, ,  
02/09/2018 18:36, -9, 73, -16 ,22, 27, W, None, None, ,  
02/09/2018 18:32, -10, 72, -16 ,21, 27, W, None, None, ,  
02/09/2018 18:26, -9, 72, -16 ,24, 28, W, None, None, ,  
02/09/2018 18:17, -9, 72, -15 ,24, 28, W, None, None, ,  
02/09/2018 18:16, -9, 72, -15 ,24, 27, W, None, None, ,  
02/09/2018 18:06, -8, 72, -14 ,24, 29, W, None, None, ,  
02/09/2018 18:01, -8, 73, -15 ,24, 28, W, None, None, ,  
02/09/2018 17:56, -8, 73, -14 ,25, 28, W, None, None, ,  
02/09/2018 17:46, -8, 73, -15 ,19, 23, W, None, None, ,  
02/09/2018 17:46, -8, 73, -15 ,18, 24, W, None, None, ,  
02/09/2018 17:36, -8, 73, -14 ,19, 25, W, None, None, ,  
02/09/2018 17:31, -8, 73, -14 ,21, 25, W, None, None, ,  
02/09/2018 17:26, -8, 73, -14 ,21, 24, W, None, None, ,  
02/09/2018 17:16, -7, 74, -14 ,19, 22, W, None, None, ,  
02/09/2018 17:15, -7, 74, -14 ,19, 24, W, None, None, ,  
02/09/2018 17:05, -7, 74, -13 ,19, 24, W, None, None, ,  
02/09/2018 17:02, -7, 74, -13 ,20, 24, W, None, None, ,  
02/09/2018 16:55, -7, 74, -13 ,18, 23, W, None, None, ,  
02/09/2018 16:47, -6, 74, -12 ,18, 25, W, None, None, ,  
02/09/2018 16:45, -6, 74, -12 ,19, 27, W, None, None, ,  
02/09/2018 16:35, -6, 73, -12 ,22, 29, W, None, None, ,  
02/09/2018 16:32, -6, 73, -12 ,23, 29, W, None, None, ,  
02/09/2018 16:25, -5, 73, -12 ,24, 29, W, None, None, ,  
02/09/2018 16:17, -5, 73, -11 ,23, 28, W, None, None, ,  
02/09/2018 16:15, -5, 73, -11 ,22, 28, W, None, None, ,  
02/09/2018 16:05, -5, 73, -11 ,21, 25, W, None, None, ,  
02/09/2018 16:01, -5, 72, -11 ,21, 25, W, None, None, ,  
02/09/2018 15:55, -4, 72, -11 ,21, 25, W, None, None, ,  
02/09/2018 15:46, -4, 72, -11 ,20, 24, W, None, None, ,  
02/09/2018 15:45, -4, 72, -11 ,19, 24, W, None, None, ,  
02/09/2018 15:35, -4, 72, -10 ,21, 28, NW, None, None, ,  
02/09/2018 15:31, -4, 72, -10 ,24, 28, NW, None, None, ,  
02/09/2018 15:25, -4, 72, -10 ,23, 27, NW, None, None, ,  
02/09/2018 15:16, -3, 72, -10 ,21, 27, NW, None, None, ,  
02/09/2018 15:15, -3, 72, -10 ,22, 28, NW, None, None, ,  
02/09/2018 15:05, -3, 72, -10 ,20, 27, NW, None, None, ,  
02/09/2018 15:01, -4, 71, -10 ,22, 27, NW, None, None, ,  
02/09/2018 14:55, -3, 70, -11 ,19, 24, W, None, None, ,  
02/09/2018 14:47, -3, 70, -11 ,14, 20, NW, None, None, ,  
02/09/2018 14:45, -3, 70, -11 ,16, 19, NW, None, None, ,  
02/09/2018 14:35, -3, 70, -11 ,14, 19, W, None, None, ,  
02/09/2018 14:31, -3, 70, -11 ,16, 19, W, None, None, ,  
02/09/2018 14:25, -3, 70, -11 ,15, 19, W, None, None, ,  
02/09/2018 14:16, -3, 70, -10 ,14, 18, W, None, None, ,  
02/09/2018 14:14, -3, 70, -11 ,16, 18, W, None, None, ,  
02/09/2018 14:04, -3, 70, -10 ,16, 20, W, None, None, ,  
02/09/2018 14:01, -3, 70, -10 ,17, 20, W, None, None, ,  
02/09/2018 13:54, -3, 70, -10 ,15, 20, W, None, None, ,  
02/09/2018 13:46, -4, 71, -11 ,16, 18, W, None, None, ,  
02/09/2018 13:44, -4, 71, -10 ,15, 17, W, None, None, ,  
02/09/2018 13:34, -4, 72, -11 ,15, 17, W, None, None, ,  
02/09/2018 13:31, -4, 73, -10 ,13, 17, W, None, None, ,  
02/09/2018 13:24, -4, 73, -10 ,15, 17, W, None, None, ,  
02/09/2018 13:16, -4, 74, -10 ,14, 17, W, None, None, ,  
02/09/2018 13:14, -4, 74, -10 ,15, 17, W, None, None, ,  
02/09/2018 13:04, -4, 75, -10 ,13, 16, W, None, None, ,  
02/09/2018 13:01, -5, 75, -10 ,14, 16, W, None, None, ,  
02/09/2018 12:54, -5, 76, -10 ,12, 16, W, None, None, ,  
02/09/2018 12:47, -5, 77, -10 ,13, 16, W, None, None, ,  
02/09/2018 12:44, -5, 76, -11 ,14, 16, W, None, None, ,  
02/09/2018 12:34, -5, 77, -11 ,12, 17, W, None, None, ,  
02/09/2018 12:31, -5, 77, -11 ,14, 17, W, None, None, ,  
02/09/2018 12:24, -5, 77, -11 ,12, 16, W, None, None, ,  
02/09/2018 12:17, -5, 77, -11 ,13, 17, W, None, None, ,  
02/09/2018 12:14, -6, 76, -11 ,13, 17, W, None, None, ,  
02/09/2018 12:04, -5, 77, -11 ,14, 19, W, None, None, ,  
02/09/2018 12:01, -6, 77, -11 ,14, 19, W, None, None, ,  
02/09/2018 11:54, -6, 77, -11 ,15, 17, W, None, None, ,  
02/09/2018 11:46, -6, 77, -11 ,14, 17, NW, None, None, ,  
02/09/2018 11:44, -6, 78, -11 ,12, 17, W, None, None, ,  
02/09/2018 11:34, -7, 77, -12 ,12, 17, W, None, None, ,  
02/09/2018 11:31, -7, 77, -12 ,12, 17, W, None, None, ,  
02/09/2018 11:24, -7, 78, -12 ,13, 19, W, None, None, ,  
02/09/2018 11:16, -7, 77, -12 ,15, 19, W, None, None, ,  
02/09/2018 11:13, -7, 77, -13 ,16, 18, W, None, None, ,  
02/09/2018 11:03, -8, 77, -13 ,14, 17, W, None, None, ,  
02/09/2018 11:01, -8, 77, -13 ,15, 17, W, None, None, ,  
02/09/2018 10:53, -8, 77, -13 ,14, 16, W, None, None, ,  
02/09/2018 10:46, -8, 78, -13 ,14, 17, W, None, None, ,  
02/09/2018 10:43, -8, 78, -13 ,13, 16, W, None, None, ,  
02/09/2018 10:33, -9, 78, -14 ,12, 14, W, None, None, ,  
02/09/2018 10:31, -8, 78, -13 ,11, 14, W, None, None, ,  
02/09/2018 10:23, -9, 78, -14 ,10, 13, NW, None, None, ,  
02/09/2018 10:16, -9, 78, -14 ,11, 14, W, None, None, ,  
02/09/2018 10:13, -9, 78, -14 ,11, 16, W, None, None, ,  
02/09/2018 10:03, -9, 78, -14 ,12, 14, W, None, None, ,  
02/09/2018 10:01, -9, 78, -14 ,12, 14, W, None, None, ,  
02/09/2018 09:53, -9, 78, -14 ,10, 13, W, None, None, ,  
02/09/2018 09:46, -9, 78, -14 ,10, 12, W, None, None, ,  
02/09/2018 09:43, -9, 78, -14 ,9, 15, W, None, None, ,  
02/09/2018 09:33, -9, 78, -14 ,14, 17, NW, None, None, ,  
02/09/2018 09:32, -9, 78, -14 ,13, 17, NW, None, None, ,  
02/09/2018 09:23, -10, 78, -15 ,13, 16, NW, None, None, ,  
02/09/2018 09:17, -10, 78, -15 ,12, 15, NW, None, None, ,  
02/09/2018 09:13, -10, 78, -15 ,10, 13, NW, None, None, ,  
02/09/2018 09:03, -10, 78, -15 ,9, 12, NW, None, None, ,  
02/09/2018 09:01, -10, 78, -15 ,9, 12, NW, None, None, ,  
02/09/2018 08:53, -10, 79, -15 ,9, 12, NW, None, None, ,  
02/09/2018 08:46, -10, 78, -15 ,7, 11, W, None, None, ,  
02/09/2018 08:43, -10, 78, -15 ,8, 11, W, None, None, ,  
02/09/2018 08:33, -10, 78, -15 ,9, 13, NW, None, None, ,  
02/09/2018 08:32, -10, 78, -15 ,9, 13, NW, None, None, ,  
02/09/2018 08:22, -10, 79, -15 ,8, 12, NW, None, None, ,  
02/09/2018 08:16, -10, 79, -15 ,9, 12, NW, None, None, ,  
02/09/2018 08:12, -11, 80, -15 ,9, 12, NW, None, None, ,  
02/09/2018 08:02, -12, 79, -17 ,8, 10, W, None, None, ,  
02/09/2018 08:01, -12, 79, -17 ,8, 10, W, None, None, ,  
02/09/2018 07:52, -12, 79, -17 ,9, 12, NW, None, None, ,  
02/09/2018 07:46, -12, 79, -17 ,11, 12, NW, None, None, ,  
02/09/2018 07:42, -12, 79, -17 ,11, 12, NW, None, None, ,  
02/09/2018 07:32, -12, 79, -17 ,9, 11, W, None, None, ,  
02/09/2018 07:31, -12, 79, -17 ,9, 11, W, None, None, ,  
02/09/2018 07:22, -13, 79, -18 ,6, 9, NW, None, None, ,  
02/09/2018 07:16, -13, 79, -18 ,6, 8, NW, None, None, ,  
02/09/2018 07:12, -13, 79, -18 ,6, 9, W, None, None, ,  
02/09/2018 07:02, -14, 78, -19 ,7, 9, W, None, None, ,  
02/09/2018 07:01, -14, 78, -19 ,8, 9, W, None, None, ,  
02/09/2018 06:52, -13, 79, -18 ,8, 11, W, None, None, ,  
02/09/2018 06:47, -13, 79, -18 ,9, 11, W, None, None, ,  
02/09/2018 06:42, -14, 79, -18 ,9, 12, W, None, None, ,  
02/09/2018 06:32, -14, 78, -19 ,11, 12, W, None, None, ,  
02/09/2018 06:32, -14, 78, -19 ,11, 12, W, None, None, ,  
02/09/2018 06:22, -13, 79, -17 ,9, 11, W, None, None, ,  
02/09/2018 06:17, -14, 77, -19 ,9, 11, W, None, None, ,  
02/09/2018 06:12, -12, 80, -16 ,7, 9, W, None, None, ,  
02/09/2018 06:02, -11, 80, -16 ,9, 13, NW, None, None, ,  
02/09/2018 06:02, -11, 80, -16 ,9, 13, NW, None, None, ,  
02/09/2018 05:52, -12, 82, -16 ,12, 14, NW, None, None, ,  
02/09/2018 05:47, -13, 80, -18 ,9, 12, NW, None, None, ,  
02/09/2018 05:42, -14, 80, -19 ,9, 11, W, None, None, ,  
02/09/2018 05:32, -17, 78, -21 ,7, 8, W, None, None, ,  
02/09/2018 05:32, -17, 77, -22 ,7, 8, W, None, None, ,  
02/09/2018 05:21, -16, 77, -21 ,7, 10, W, None, None, ,  
02/09/2018 05:17, -16, 77, -21 ,9, 10, W, None, None, ,  
02/09/2018 05:11, -14, 79, -19 ,8, 11, W, None, None, ,  
02/09/2018 05:02, -14, 80, -19 ,10, 12, W, None, None, ,  
02/09/2018 05:01, -14, 80, -19 ,10, 12, W, None, None, ,  
02/09/2018 04:51, -16, 78, -21 ,9, 10, W, None, None, ,  
02/09/2018 04:47, -15, 78, -20 ,8, 10, W, None, None, ,  
02/09/2018 04:41, -14, 79, -18 ,8, 10, W, None, None, ,  
02/09/2018 04:32, -13, 80, -18 ,8, 9, NW, None, None, ,  
02/09/2018 04:31, -13, 80, -18 ,7, 9, NW, None, None, ,  
02/09/2018 04:21, -13, 80, -18 ,8, 11, NW, None, None, ,  
02/09/2018 04:17, -13, 80, -18 ,9, 11, NW, None, None, ,  
02/09/2018 04:11, -13, 80, -18 ,10, 11, NW, None, None, ,  
02/09/2018 04:02, -13, 80, -18 ,9, 11, NW, None, None, ,  
02/09/2018 04:01, -13, 80, -18 ,9, 11, NW, None, None, ,  
02/09/2018 03:51, -13, 80, -17 ,9, 11, W, None, None, ,  
02/09/2018 03:50, -13, 80, -17 ,9, 11, W, None, None, ,  
02/09/2018 03:41, -13, 80, -18 ,9, 11, NW, None, None, ,  
02/09/2018 03:32, -12, 80, -17 ,10, 13, NW, None, None, ,  
02/09/2018 03:31, -12, 81, -17 ,11, 13, NW, None, None, ,  
02/09/2018 03:21, -13, 81, -17 ,12, 13, NW, None, None, ,  
02/09/2018 03:17, -14, 80, -18 ,11, 12, W, None, None, ,  
02/09/2018 03:11, -14, 79, -18 ,10, 12, NW, None, None, ,  
02/09/2018 03:02, -13, 80, -17 ,11, 12, NW, None, None, ,  
02/09/2018 03:01, -12, 80, -17 ,11, 12, NW, None, None, ,  
02/09/2018 02:51, -12, 81, -17 ,11, 12, NW, None, None, ,  
02/09/2018 02:47, -12, 81, -16 ,10, 12, NW, None, None, ,  
02/09/2018 02:41, -12, 82, -16 ,12, 12, NW, None, None, ,  
02/09/2018 02:32, -13, 80, -17 ,7, 10, NW, None, None, ,  
02/09/2018 02:31, -12, 81, -17 ,7, 11, NW, None, None, ,  
02/09/2018 02:20, -11, 82, -15 ,10, 13, NW, None, None, ,  
02/09/2018 02:16, -12, 82, -16 ,12, 13, NW, None, None, ,  
02/09/2018 02:10, -12, 81, -16 ,10, 12, NW, None, None, ,  
02/09/2018 02:02, -12, 83, -15 ,12, 14, NW, None, None, ,  
02/09/2018 02:00, -11, 83, -15 ,12, 14, NW, None, None, ,  
02/09/2018 01:50, -12, 82, -16 ,11, 12, NW, None, None, ,  
02/09/2018 01:47, -12, 82, -16 ,12, 12, NW, None, None, ,  
02/09/2018 01:40, -12, 83, -16 ,11, 12, NW, None, None, ,  
02/09/2018 01:32, -12, 82, -16 ,9, 10, NW, None, None, ,  
02/09/2018 01:30, -13, 81, -17 ,9, 9, NW, None, None, ,  
02/09/2018 01:20, -14, 80, -18 ,7, 9, W, None, None, ,  
02/09/2018 01:17, -14, 79, -18 ,7, 9, W, None, None, ,  
02/09/2018 01:10, -12, 79, -17 ,7, 10, W, None, None, ,  
02/09/2018 01:02, -10, 82, -14 ,9, 11, W, None, None, ,  
02/09/2018 01:00, -10, 82, -14 ,10, 11, NW, None, None, ,  
02/09/2018 00:50, -11, 82, -15 ,9, 11, NW, None, None, ,  
02/09/2018 00:47, -11, 82, -15 ,10, 12, NW, None, None, ,  
02/09/2018 00:40, -10, 82, -14 ,11, 13, NW, None, None, ,  
02/09/2018 00:32, -12, 81, -16 ,9, 11, W, None, None, ,  
02/09/2018 00:30, -12, 80, -16 ,9, 12, W, None, None, ,  
02/09/2018 00:20, -10, 82, -14 ,11, 12, NW, None, None, ,  
02/09/2018 00:17, -11, 82, -15 ,11, 12, NW, None, None, ,  
02/09/2018 00:10, -11, 82, -15 ,11, 12, NW, None, None, ,  
02/09/2018 00:02, -11, 81, -15 ,12, 12, NW, None, None, ,  
02/09/2018 00:00, -11, 81, -15 ,12, 12, NW, None, None, ,  
02/08/2018 23:50, -11, 81, -15 ,10, 12, NW, None, None, ,  
02/08/2018 23:47, -10, 81, -15 ,10, 12, NW, None, None, ,  
02/08/2018 23:40, -10, 80, -15 ,11, 12, NW, None, None, ,  
02/08/2018 23:32, -10, 81, -14 ,11, 12, NW, None, None, ,  
02/08/2018 23:30, -10, 80, -14 ,11, 12, NW, None, None, ,  
02/08/2018 23:19, -10, 80, -14 ,11, 12, NW, None, None, ,  
02/08/2018 23:16, -10, 80, -14 ,10, 12, NW, None, None, ,  
02/08/2018 23:09, -10, 80, -14 ,11, 11, NW, None, None, ,  
02/08/2018 23:02, -10, 79, -14 ,10, 11, NW, None, None, ,  
02/08/2018 22:59, -10, 79, -15 ,10, 11, NW, None, None, ,  
02/08/2018 22:49, -9, 79, -14 ,9, 11, NW, None, None, ,  
02/08/2018 22:47, -9, 79, -14 ,10, 11, NW, None, None, ,  
02/08/2018 22:39, -9, 78, -13 ,10, 11, NW, None, None, ,  
02/08/2018 22:32, -9, 79, -13 ,9, 10, NW, None, None, ,  
02/08/2018 22:29, -9, 79, -13 ,7, 8, NW, None, None, ,  
02/08/2018 22:19, -9, 79, -14 ,7, 10, NW, None, None, ,  
02/08/2018 22:17, -9, 79, -14 ,7, 10, NW, None, None, ,  
02/08/2018 22:09, -8, 79, -13 ,9, 11, NW, None, None, ,  
02/08/2018 22:02, -8, 79, -13 ,9, 10, NW, None, None, ,  
02/08/2018 21:59, -8, 79, -13 ,9, 11, NW, None, None, ,  
02/08/2018 21:49, -7, 78, -12 ,11, 12, NW, None, None, ,  
02/08/2018 21:47, -7, 78, -12 ,11, 12, NW, None, None, ,  
02/08/2018 21:39, -7, 79, -12 ,10, 11, NW, None, None, ,  
02/08/2018 21:32, -7, 79, -12 ,8, 9, NW, None, None, ,  
02/08/2018 21:29, -7, 79, -12 ,7, 9, NW, None, None, ,  
02/08/2018 21:19, -8, 79, -12 ,7, 10, NW, None, None, ,  
02/08/2018 21:17, -8, 79, -12 ,7, 11, NW, None, None, ,  
02/08/2018 21:09, -8, 79, -12 ,10, 12, N, None, None, ,  
02/08/2018 21:02, -8, 80, -13 ,11, 12, N, None, None, ,  
02/08/2018 20:59, -8, 79, -13 ,10, 11, NW, None, None, ,  
02/08/2018 20:49, -8, 79, -13 ,10, 12, N, None, None, ,  
02/08/2018 20:47, -8, 79, -13 ,10, 12, N, None, None, ,  
02/08/2018 20:39, -9, 80, -13 ,11, 12, N, None, None, ,  
02/08/2018 20:32, -8, 79, -13 ,9, 11, N, None, None, ,  
02/08/2018 20:28, -8, 80, -13 ,9, 11, N, None, None, ,  
02/08/2018 20:18, -8, 80, -13 ,9, 11, NW, None, None, ,  
02/08/2018 20:17, -9, 80, -13 ,9, 11, NW, None, None, ,  
02/08/2018 20:08, -9, 80, -13 ,7, 8, NW, None, None, ,  
02/08/2018 20:02, -9, 80, -13 ,7, 9, N, None, None, ,  
02/08/2018 19:58, -8, 80, -13 ,7, 9, N, None, None, ,  
02/08/2018 19:48, -8, 81, -12 ,7, 8, N, None, None, ,  
02/08/2018 19:47, -8, 81, -12 ,7, 8, N, None, None, ,  
Change End Date:

Copyright © 1998-2015 Vaisala, Inc.
All Rights Reserved
Send comments about the data to:
SCAN Web ® is a registered trademark of Vaisala, Inc.
SCAN Web Version 6.0